createdAt,value
2023-04-16T00:02:20.863Z,11.65
2023-04-16T00:04:55.663Z,11.47
2023-04-16T00:07:24.847Z,11.31
2023-04-16T00:09:54.582Z,11.37
2023-04-16T00:12:25.274Z,11.03
2023-04-16T00:14:55.580Z,11.04
2023-04-16T00:17:25.253Z,11.36
2023-04-16T00:19:54.989Z,11.90
2023-04-16T00:22:24.895Z,12.11
2023-04-16T00:24:55.251Z,11.88
2023-04-16T00:27:24.910Z,11.95
2023-04-16T00:29:54.509Z,12.19
2023-04-16T00:32:24.211Z,11.95
2023-04-16T00:34:53.878Z,11.88
2023-04-16T00:37:23.524Z,11.82
2023-04-16T00:39:53.192Z,12.17
2023-04-16T00:42:23.470Z,12.39
2023-04-16T00:44:53.241Z,12.54
2023-04-16T00:47:29.703Z,12.33
2023-04-16T00:49:59.316Z,12.33
2023-04-16T00:52:32.854Z,12.50
2023-04-16T00:55:05.524Z,12.51
2023-04-16T00:57:35.166Z,12.86
2023-04-16T01:00:05.290Z,12.91
2023-04-16T01:02:36.849Z,13.00
2023-04-16T01:05:07.747Z,13.01
2023-04-16T01:07:40.048Z,12.89
2023-04-16T01:10:10.503Z,13.10
2023-04-16T01:12:40.216Z,13.27
2023-04-16T01:15:10.587Z,13.26
2023-04-16T01:17:40.459Z,13.30
2023-04-16T01:20:16.019Z,13.35
2023-04-16T01:22:45.712Z,13.43
2023-04-16T01:25:18.544Z,13.31
2023-04-16T01:27:51.214Z,13.45
2023-04-16T01:30:20.976Z,13.57
2023-04-16T01:32:50.779Z,13.44
2023-04-16T01:35:21.013Z,13.60
2023-04-16T01:37:55.471Z,13.77
2023-04-16T01:40:30.975Z,13.87
2023-04-16T01:43:03.265Z,13.83
2023-04-16T01:45:39.757Z,13.95
2023-04-16T01:48:15.791Z,13.84
2023-04-16T01:50:45.500Z,13.78
2023-04-16T01:53:15.193Z,13.82
2023-04-16T01:55:44.971Z,13.97
2023-04-16T01:58:16.380Z,14.01
2023-04-16T02:00:46.163Z,13.99
2023-04-16T02:03:20.208Z,13.87
2023-04-16T02:05:49.938Z,13.85
2023-04-16T02:08:20.356Z,13.92
2023-04-16T02:10:53.709Z,14.02
2023-04-16T02:13:27.684Z,14.04
2023-04-16T02:15:57.771Z,14.02
2023-04-16T02:18:27.802Z,14.20
2023-04-16T02:20:57.518Z,14.30
2023-04-16T02:23:27.377Z,14.27
2023-04-16T02:25:57.156Z,14.28
2023-04-16T02:28:26.837Z,14.37
2023-04-16T02:30:56.426Z,14.37
2023-04-16T02:33:31.304Z,14.35
2023-04-16T02:36:01.676Z,14.22
2023-04-16T02:38:31.482Z,14.13
2023-04-16T02:41:04.144Z,14.44
2023-04-16T02:43:33.756Z,14.31
2023-04-16T02:46:06.294Z,14.31
2023-04-16T02:48:36.058Z,14.47
2023-04-16T02:51:05.815Z,14.51
2023-04-16T02:53:38.298Z,14.61
2023-04-16T02:56:08.389Z,14.69
2023-04-16T02:58:37.978Z,14.77
2023-04-16T03:01:07.731Z,14.86
2023-04-16T03:03:37.701Z,14.76
2023-04-16T03:06:08.321Z,14.73
2023-04-16T03:08:38.705Z,14.80
2023-04-16T03:11:09.108Z,14.31
2023-04-16T03:13:38.668Z,14.79
2023-04-16T03:16:11.753Z,14.85
2023-04-16T03:18:41.466Z,14.92
2023-04-16T03:21:11.406Z,15.03
2023-04-16T03:23:41.573Z,15.09
2023-04-16T03:26:14.275Z,14.97
2023-04-16T03:28:45.230Z,15.07
2023-04-16T03:31:14.906Z,15.21
2023-04-16T03:33:48.028Z,15.10
2023-04-16T03:36:20.662Z,15.06
2023-04-16T03:38:53.724Z,15.12
2023-04-16T03:41:26.349Z,15.10
2023-04-16T03:43:56.261Z,15.28
2023-04-16T03:46:26.064Z,15.09
2023-04-16T03:48:55.723Z,14.88
2023-04-16T03:51:25.400Z,15.21
2023-04-16T03:53:57.659Z,15.27
2023-04-16T03:56:30.595Z,15.23
2023-04-16T03:59:03.674Z,15.28
2023-04-16T04:01:36.256Z,15.23
2023-04-16T04:04:06.191Z,15.14
2023-04-16T04:06:35.884Z,15.11
2023-04-16T04:09:07.759Z,15.14
2023-04-16T04:11:37.720Z,15.27
2023-04-16T04:14:13.121Z,15.26
2023-04-16T04:16:45.811Z,14.98
2023-04-16T04:19:18.066Z,15.10
2023-04-16T04:21:47.659Z,15.10
2023-04-16T04:24:17.290Z,15.13
2023-04-16T04:26:46.964Z,15.15
2023-04-16T04:29:22.292Z,15.35
2023-04-16T04:31:55.087Z,15.46
2023-04-16T04:34:27.496Z,15.64
2023-04-16T04:37:00.047Z,15.57
2023-04-16T04:39:29.742Z,15.55
2023-04-16T04:42:00.566Z,15.60
2023-04-16T04:44:33.068Z,15.67
2023-04-16T04:47:02.764Z,15.62
2023-04-16T04:49:35.847Z,15.63
2023-04-16T04:52:06.534Z,15.74
2023-04-16T04:54:36.198Z,15.87
2023-04-16T04:57:05.820Z,16.02
2023-04-16T04:59:35.470Z,15.91
2023-04-16T05:02:05.251Z,15.94
2023-04-16T05:04:34.897Z,15.79
2023-04-16T05:07:11.427Z,15.70
2023-04-16T05:09:41.083Z,15.79
2023-04-16T05:12:10.732Z,15.82
2023-04-16T05:14:40.329Z,15.78
2023-04-16T05:17:10.007Z,15.77
2023-04-16T05:19:46.407Z,15.68
2023-04-16T05:22:16.089Z,15.79
2023-04-16T05:24:46.067Z,15.90
2023-04-16T05:27:15.779Z,15.91
2023-04-16T05:29:45.425Z,15.95
2023-04-16T05:32:15.189Z,16.12
2023-04-16T05:34:48.551Z,16.07
2023-04-16T05:37:18.137Z,16.18
2023-04-16T05:39:47.850Z,16.16
2023-04-16T05:42:17.827Z,15.98
2023-04-16T05:44:52.955Z,16.07
2023-04-16T05:47:22.973Z,16.02
2023-04-16T05:49:52.709Z,15.98
2023-04-16T05:52:24.991Z,15.83
2023-04-16T05:54:57.496Z,15.81
2023-04-16T05:57:34.931Z,15.83
2023-04-16T06:00:07.750Z,15.72
2023-04-16T06:02:38.117Z,15.57
2023-04-16T06:05:11.023Z,15.50
2023-04-16T06:07:42.671Z,15.63
2023-04-16T06:10:15.512Z,15.59
2023-04-16T06:12:48.411Z,15.58
2023-04-16T06:15:21.047Z,15.43
2023-04-16T06:17:52.657Z,15.53
2023-04-16T06:20:22.886Z,15.48
2023-04-16T06:22:55.453Z,15.58
2023-04-16T06:25:25.267Z,15.59
2023-04-16T06:27:56.738Z,15.55
2023-04-16T06:30:27.186Z,15.65
2023-04-16T06:32:57.140Z,15.39
2023-04-16T06:35:27.527Z,15.51
2023-04-16T06:37:57.232Z,15.41
2023-04-16T06:40:31.641Z,15.49
2023-04-16T06:43:02.641Z,15.45
2023-04-16T06:45:32.285Z,15.55
2023-04-16T06:48:03.019Z,15.50
2023-04-16T06:50:33.290Z,15.76
2023-04-16T06:53:10.518Z,15.77
2023-04-16T06:55:40.232Z,15.80
2023-04-16T06:58:14.732Z,15.74
2023-04-16T07:00:44.399Z,15.92
2023-04-16T07:03:16.810Z,15.94
2023-04-16T07:05:49.234Z,15.70
2023-04-16T07:08:18.835Z,15.68
2023-04-16T07:10:48.477Z,15.79
2023-04-16T07:13:20.085Z,15.85
2023-04-16T07:15:50.320Z,15.75
2023-04-16T07:18:20.812Z,15.57
2023-04-16T07:20:52.858Z,15.69
2023-04-16T07:23:25.484Z,15.69
2023-04-16T07:25:55.191Z,15.83
2023-04-16T07:28:26.830Z,15.71
2023-04-16T07:30:56.478Z,15.81
2023-04-16T07:33:26.878Z,15.87
2023-04-16T07:35:57.086Z,15.75
2023-04-16T07:38:27.326Z,15.60
2023-04-16T07:40:58.384Z,15.66
2023-04-16T07:43:28.225Z,15.67
2023-04-16T07:45:58.082Z,15.72
2023-04-16T07:48:28.777Z,15.69
2023-04-16T07:50:58.481Z,15.63
2023-04-16T07:53:28.190Z,15.70
2023-04-16T07:56:00.652Z,15.67
2023-04-16T07:58:39.882Z,15.76
2023-04-16T08:01:09.574Z,15.77
2023-04-16T08:03:39.483Z,15.73
2023-04-16T08:06:09.534Z,15.77
2023-04-16T08:08:39.701Z,15.77
2023-04-16T08:11:12.323Z,15.51
2023-04-16T08:13:44.886Z,15.67
2023-04-16T08:16:14.596Z,15.79
2023-04-16T08:18:44.727Z,15.47
2023-04-16T08:21:14.463Z,15.85
2023-04-16T08:23:44.052Z,15.59
2023-04-16T08:26:13.717Z,15.63
2023-04-16T08:28:43.368Z,15.33
2023-04-16T08:31:13.668Z,15.62
2023-04-16T08:33:43.573Z,15.46
2023-04-16T08:36:19.445Z,15.27
2023-04-16T08:38:56.448Z,15.42
2023-04-16T08:41:29.699Z,15.50
2023-04-16T08:44:04.597Z,15.43
2023-04-16T08:46:34.420Z,15.58
2023-04-16T08:49:05.914Z,15.31
2023-04-16T08:51:44.635Z,15.41
2023-04-16T08:54:16.911Z,15.35
2023-04-16T08:56:50.680Z,15.05
2023-04-16T08:59:20.487Z,14.97
2023-04-16T09:01:55.960Z,15.13
2023-04-16T09:04:29.222Z,15.08
2023-04-16T09:06:59.369Z,14.93
2023-04-16T09:09:34.546Z,14.75
2023-04-16T09:12:04.437Z,15.09
2023-04-16T09:14:34.199Z,15.06
2023-04-16T09:17:06.465Z,14.97
2023-04-16T09:19:36.438Z,15.02
2023-04-16T09:22:06.568Z,15.14
2023-04-16T09:24:37.111Z,14.82
2023-04-16T09:27:07.579Z,14.69
2023-04-16T09:29:43.582Z,14.84
2023-04-16T09:32:14.520Z,14.60
2023-04-16T09:35:09.230Z,14.60
2023-04-16T09:37:39.498Z,14.52
2023-04-16T09:40:09.808Z,14.36
2023-04-16T09:42:43.037Z,14.28
2023-04-16T09:45:13.198Z,14.25
2023-04-16T09:47:44.964Z,14.51
2023-04-16T09:50:20.905Z,14.25
2023-04-16T09:52:53.639Z,14.05
2023-04-16T09:55:29.287Z,13.98
2023-04-16T09:58:03.039Z,14.07
2023-04-16T10:00:42.342Z,14.13
2023-04-16T10:03:16.082Z,13.98
2023-04-16T10:05:45.784Z,13.94
2023-04-16T10:08:17.790Z,14.00
2023-04-16T10:10:48.012Z,13.85
2023-04-16T10:13:23.486Z,13.66
2023-04-16T10:15:53.351Z,13.75
2023-04-16T10:18:23.821Z,13.70
2023-04-16T10:20:54.148Z,13.31
2023-04-16T10:23:26.633Z,13.32
2023-04-16T10:25:57.772Z,13.25
2023-04-16T10:28:27.560Z,13.23
2023-04-16T10:30:59.641Z,13.39
2023-04-16T10:33:43.044Z,13.61
2023-04-16T10:36:19.349Z,13.12
2023-04-16T10:38:51.682Z,13.64
2023-04-16T10:41:24.318Z,13.72
2023-04-16T10:43:54.206Z,13.65
2023-04-16T10:46:29.358Z,13.81
2023-04-16T10:49:02.909Z,13.67
2023-04-16T10:51:37.805Z,13.48
2023-04-16T10:54:16.916Z,13.46
2023-04-16T10:56:53.923Z,13.49
2023-04-16T10:59:33.011Z,13.47
2023-04-16T11:02:08.907Z,13.31
2023-04-16T11:04:49.204Z,13.33
2023-04-16T11:07:35.664Z,13.10
2023-04-16T11:10:10.031Z,13.17
2023-04-16T11:12:55.400Z,12.96
2023-04-16T11:15:26.346Z,13.31
2023-04-16T11:17:56.290Z,13.25
2023-04-16T11:20:28.247Z,13.30
2023-04-16T11:22:59.981Z,13.64
2023-04-16T11:25:31.948Z,13.60
2023-04-16T11:28:08.228Z,13.47
2023-04-16T11:30:44.195Z,13.46
2023-04-16T11:33:17.470Z,13.53
2023-04-16T11:35:47.585Z,13.35
2023-04-16T11:38:17.332Z,13.39
2023-04-16T11:40:47.175Z,13.60
2023-04-16T11:43:18.547Z,13.65
2023-04-16T11:46:12.821Z,13.59
2023-04-16T11:48:53.954Z,13.30
2023-04-16T11:51:24.803Z,13.36
2023-04-16T11:53:57.779Z,13.52
2023-04-16T11:56:32.461Z,13.53
2023-04-16T11:59:17.137Z,13.23
2023-04-16T12:02:04.713Z,12.66
2023-04-16T12:04:36.235Z,13.33
2023-04-16T12:07:16.067Z,13.27
2023-04-16T12:09:46.849Z,13.00
2023-04-16T12:12:32.787Z,13.26
2023-04-16T12:15:07.447Z,13.01
2023-04-16T12:17:38.777Z,13.12
2023-04-16T12:20:13.070Z,13.16
2023-04-16T12:22:49.890Z,13.20
2023-04-16T12:25:24.595Z,13.26
2023-04-16T12:27:57.464Z,12.93
2023-04-16T12:30:28.403Z,13.21
2023-04-16T12:33:19.288Z,13.45
2023-04-16T12:35:52.617Z,13.40
2023-04-16T12:38:24.531Z,13.41
2023-04-16T12:41:01.078Z,13.07
2023-04-16T12:43:30.814Z,13.33
2023-04-16T12:46:03.528Z,12.95
2023-04-16T12:48:34.240Z,13.32
2023-04-16T12:51:04.143Z,13.24
2023-04-16T12:53:33.760Z,12.99
2023-04-16T12:56:08.266Z,13.44
2023-04-16T12:58:37.978Z,13.07
2023-04-16T13:01:07.823Z,13.47
2023-04-16T13:03:38.910Z,13.03
2023-04-16T13:06:09.538Z,13.19
2023-04-16T13:08:39.455Z,13.40
2023-04-16T13:11:12.388Z,13.25
2023-04-16T13:13:42.479Z,12.88
2023-04-16T13:16:13.024Z,13.13
2023-04-16T13:18:43.196Z,12.80
2023-04-16T13:21:13.930Z,12.75
2023-04-16T13:23:43.563Z,12.78
2023-04-16T13:26:14.770Z,12.79
2023-04-16T13:28:44.409Z,12.89
2023-04-16T13:31:14.140Z,12.75
2023-04-16T13:33:47.010Z,12.84
2023-04-16T13:36:19.799Z,12.83
2023-04-16T13:38:53.008Z,12.56
2023-04-16T13:41:25.592Z,12.50
2023-04-16T13:43:55.836Z,12.38
2023-04-16T13:46:26.300Z,12.80
2023-04-16T13:48:56.072Z,12.57
2023-04-16T13:51:25.941Z,12.56
2023-04-16T13:53:59.916Z,12.24
2023-04-16T13:56:29.621Z,12.55
2023-04-16T13:59:03.925Z,12.47
2023-04-16T14:01:33.543Z,12.61
2023-04-16T14:04:08.099Z,12.72
2023-04-16T14:06:41.022Z,12.45
2023-04-16T14:09:13.076Z,12.29
2023-04-16T14:11:43.027Z,12.03
2023-04-16T14:14:12.727Z,12.06
2023-04-16T14:16:43.129Z,11.72
2023-04-16T14:19:13.679Z,11.39
2023-04-16T14:21:43.305Z,11.98
2023-04-16T14:24:13.025Z,11.51
2023-04-16T14:26:54.892Z,11.64
2023-04-16T14:29:24.527Z,11.46
2023-04-16T14:31:54.193Z,11.29
2023-04-16T14:34:26.806Z,11.45
2023-04-16T14:36:56.497Z,11.57
2023-04-16T14:39:26.957Z,12.02
2023-04-16T14:42:00.520Z,11.51
2023-04-16T14:44:33.109Z,11.88
2023-04-16T14:47:02.762Z,11.97
2023-04-16T14:49:32.482Z,11.72
2023-04-16T14:52:07.592Z,11.49
2023-04-16T14:54:42.375Z,11.39
2023-04-16T14:57:11.477Z,11.25
2023-04-16T14:59:44.285Z,11.54
2023-04-16T15:02:17.068Z,11.50
2023-04-16T15:04:46.992Z,11.34
2023-04-16T15:07:16.685Z,12.03
2023-04-16T15:09:55.540Z,11.99
2023-04-16T15:12:28.385Z,12.10
2023-04-16T15:14:58.118Z,11.97
2023-04-16T15:17:28.244Z,12.16
2023-04-16T15:20:00.940Z,11.85
2023-04-16T15:22:30.702Z,11.52
2023-04-16T15:25:00.328Z,11.36
2023-04-16T15:27:30.262Z,11.13
2023-04-16T15:30:00.519Z,11.04
2023-04-16T15:32:31.134Z,11.10
2023-04-16T15:35:04.372Z,11.30
2023-04-16T15:37:36.909Z,11.56
2023-04-16T15:40:10.494Z,10.82
2023-04-16T15:42:40.798Z,10.78
2023-04-16T15:45:10.668Z,10.79
2023-04-16T15:47:41.833Z,11.35
2023-04-16T15:50:12.465Z,11.28
2023-04-16T15:52:47.368Z,10.80
2023-04-16T15:55:17.821Z,11.02
2023-04-16T15:57:50.399Z,11.09
2023-04-16T16:00:20.619Z,11.06
2023-04-16T16:02:53.447Z,11.12
2023-04-16T16:05:23.201Z,10.86
2023-04-16T16:07:53.322Z,10.64
2023-04-16T16:10:23.026Z,11.07
2023-04-16T16:12:52.771Z,11.44
2023-04-16T16:15:22.563Z,11.10
2023-04-16T16:17:54.321Z,11.22
2023-04-16T16:20:27.180Z,11.26
2023-04-16T16:22:58.007Z,11.66
2023-04-16T16:25:30.639Z,11.56
2023-04-16T16:28:00.949Z,11.47
2023-04-16T16:30:33.704Z,11.13
2023-04-16T16:33:03.417Z,11.01
2023-04-16T16:35:33.885Z,11.08
2023-04-16T16:38:03.995Z,11.12
2023-04-16T16:40:33.842Z,11.08
2023-04-16T16:43:04.256Z,10.95
2023-04-16T16:45:34.283Z,11.31
2023-04-16T16:48:05.497Z,11.18
2023-04-16T16:50:35.316Z,11.22
2023-04-16T16:53:05.570Z,11.20
2023-04-16T16:55:36.662Z,11.31
2023-04-16T16:58:06.349Z,11.23
2023-04-16T17:00:36.226Z,11.22
2023-04-16T17:03:06.025Z,10.96
2023-04-16T17:05:35.804Z,10.79
2023-04-16T17:08:05.587Z,11.03
2023-04-16T17:10:37.992Z,10.98
2023-04-16T17:13:07.668Z,10.45
2023-04-16T17:15:37.272Z,10.54
2023-04-16T17:18:10.047Z,10.41
2023-04-16T17:20:40.005Z,10.59
2023-04-16T17:23:09.657Z,10.50
2023-04-16T17:25:39.371Z,10.68
2023-04-16T17:28:09.085Z,10.45
2023-04-16T17:30:41.315Z,10.52
2023-04-16T17:33:11.014Z,10.51
2023-04-16T17:35:42.527Z,10.54
2023-04-16T17:38:12.191Z,10.25
2023-04-16T17:40:41.965Z,10.30
2023-04-16T17:43:11.640Z,10.21
2023-04-16T17:45:41.370Z,10.42
2023-04-16T17:48:17.493Z,10.22
2023-04-16T17:50:51.430Z,10.48
2023-04-16T17:53:21.048Z,10.64
2023-04-16T17:55:59.594Z,10.70
2023-04-16T17:58:32.003Z,10.17
2023-04-16T18:01:01.967Z,10.43
2023-04-16T18:03:32.489Z,10.32
2023-04-16T18:06:02.721Z,10.00
2023-04-16T18:08:32.700Z,10.42
2023-04-16T18:11:12.532Z,10.43
2023-04-16T18:13:42.563Z,9.98
2023-04-16T18:16:21.161Z,10.06
2023-04-16T18:18:51.193Z,9.91
2023-04-16T18:21:20.802Z,10.15
2023-04-16T18:23:53.555Z,9.57
2023-04-16T18:26:23.336Z,9.58
2023-04-16T18:28:53.550Z,9.70
2023-04-16T18:31:23.617Z,10.42
2023-04-16T18:33:58.149Z,10.05
2023-04-16T18:36:29.070Z,10.03
2023-04-16T18:39:02.461Z,10.19
2023-04-16T18:41:33.091Z,10.02
2023-04-16T18:44:02.716Z,10.05
2023-04-16T18:46:32.449Z,9.51
2023-04-16T18:49:02.142Z,9.55
2023-04-16T18:51:31.886Z,10.08
2023-04-16T18:54:01.565Z,9.88
2023-04-16T18:56:33.938Z,9.78
2023-04-16T18:59:03.658Z,9.78
2023-04-16T19:01:33.365Z,9.99
2023-04-16T19:04:03.117Z,9.72
2023-04-16T19:06:33.776Z,10.05
2023-04-16T19:09:03.373Z,10.14
2023-04-16T19:11:36.024Z,9.95
2023-04-16T19:14:09.688Z,9.92
2023-04-16T19:16:40.746Z,10.04
2023-04-16T19:19:10.735Z,9.90
2023-04-16T19:21:43.197Z,9.53
2023-04-16T19:24:13.624Z,10.11
2023-04-16T19:26:43.299Z,9.73
2023-04-16T19:29:13.217Z,9.64
2023-04-16T19:31:43.024Z,9.57
2023-04-16T19:34:13.251Z,9.63
2023-04-16T19:36:43.189Z,9.78
2023-04-16T19:39:13.323Z,10.12
2023-04-16T19:41:43.046Z,10.15
2023-04-16T19:44:12.708Z,9.76
2023-04-16T19:46:46.271Z,9.93
2023-04-16T19:49:15.854Z,9.69
2023-04-16T19:51:45.675Z,9.74
2023-04-16T19:54:18.038Z,9.46
2023-04-16T19:56:57.901Z,9.43
2023-04-16T19:59:30.660Z,8.93
2023-04-16T20:02:00.686Z,8.61
2023-04-16T20:04:30.465Z,9.19
2023-04-16T20:07:00.311Z,9.28
2023-04-16T20:09:30.064Z,9.49
2023-04-16T20:11:59.794Z,9.27
2023-04-16T20:14:31.888Z,9.30
2023-04-16T20:17:01.690Z,9.63
2023-04-16T20:19:43.258Z,9.48
2023-04-16T20:22:13.510Z,9.21
2023-04-16T20:24:48.391Z,8.88
2023-04-16T20:27:20.915Z,8.68
2023-04-16T20:30:00.922Z,8.79
2023-04-16T20:32:30.841Z,9.08
2023-04-16T20:35:03.520Z,9.15
2023-04-16T20:37:33.946Z,9.27
2023-04-16T20:40:03.960Z,9.23
2023-04-16T20:42:34.251Z,9.10
2023-04-16T20:45:04.029Z,8.94
2023-04-16T20:47:36.088Z,9.28
2023-04-16T20:50:08.426Z,8.97
2023-04-16T20:52:40.929Z,9.05
2023-04-16T20:55:11.189Z,9.27
2023-04-16T20:57:40.831Z,11.58
2023-04-16T21:00:13.136Z,12.50
2023-04-16T21:02:43.171Z,12.89
2023-04-16T21:05:18.558Z,13.26
2023-04-16T21:07:51.952Z,13.44
2023-04-16T21:10:23.312Z,13.65
2023-04-16T21:12:53.110Z,13.77
2023-04-16T21:15:22.810Z,13.88
2023-04-16T21:17:52.425Z,13.96
2023-04-16T21:20:22.085Z,14.02
2023-04-16T21:22:52.672Z,14.05
2023-04-16T21:25:42.084Z,14.15
2023-04-16T21:28:12.082Z,14.22
2023-04-16T21:30:45.254Z,14.26
2023-04-16T21:33:16.298Z,14.31
2023-04-16T21:35:49.233Z,14.33
2023-04-16T21:38:18.872Z,14.34
2023-04-16T21:40:55.173Z,14.42
2023-04-16T21:43:33.923Z,14.45
2023-04-16T21:46:04.023Z,14.52
2023-04-16T21:48:38.932Z,14.57
2023-04-16T21:51:14.837Z,14.62
2023-04-16T21:53:44.683Z,14.69
2023-04-16T21:56:19.378Z,14.78
2023-04-16T21:58:48.332Z,14.80
2023-04-16T22:01:20.932Z,14.88
2023-04-16T22:03:53.301Z,14.94
2023-04-16T22:06:24.835Z,15.03
2023-04-16T22:08:54.930Z,15.11
2023-04-16T22:11:27.612Z,15.21
2023-04-16T22:14:02.536Z,15.30
2023-04-16T22:16:32.568Z,15.39
2023-04-16T22:19:02.194Z,15.44
2023-04-16T22:21:33.302Z,15.51
2023-04-16T22:24:03.092Z,15.60
2023-04-16T22:26:33.060Z,15.75
2023-04-16T22:29:05.440Z,15.84
2023-04-16T22:31:44.100Z,16.01
2023-04-16T22:34:18.416Z,16.32
2023-04-16T22:37:09.532Z,16.45
2023-04-16T22:39:51.358Z,16.53
2023-04-16T22:42:21.098Z,16.65
2023-04-16T22:44:50.633Z,16.69
2023-04-16T22:47:50.930Z,16.43
2023-04-16T22:50:58.679Z,15.50
2023-04-16T22:54:20.226Z,15.60
2023-04-16T22:56:58.418Z,15.66
2023-04-16T22:59:31.563Z,15.63
2023-04-16T23:02:12.105Z,15.65
2023-04-16T23:04:41.873Z,15.95
2023-04-16T23:07:11.680Z,15.79
2023-04-16T23:09:41.526Z,15.85
2023-04-16T23:12:11.522Z,15.93
2023-04-16T23:14:41.154Z,15.97
2023-04-16T23:17:10.767Z,15.97
2023-04-16T23:19:49.485Z,15.99
2023-04-16T23:22:19.213Z,16.05
2023-04-16T23:24:51.553Z,16.21
2023-04-16T23:27:24.036Z,16.16
2023-04-16T23:29:56.366Z,16.21
2023-04-16T23:32:26.066Z,16.31
2023-04-16T23:34:56.017Z,16.29
2023-04-16T23:37:26.136Z,16.42
2023-04-16T23:39:56.054Z,16.33
2023-04-16T23:42:28.688Z,16.55
2023-04-16T23:45:01.468Z,16.49
2023-04-16T23:47:31.187Z,16.48
2023-04-16T23:50:00.858Z,16.49
2023-04-16T23:52:30.648Z,16.43
2023-04-16T23:55:01.587Z,16.54
2023-04-16T23:57:31.455Z,16.58
